Malov, Denmark
Current Conditions -  °F | °C
As of 10:50 PM on Monday 20 Oct 2014 (Local Time) from EKRK Reporting Station
Broken Clouds Broken Clouds  
Wind Chill: 50°   Ceiling: 9000
Heat Index: 50°   Visibility: 6mi
Dew Point: 46°   Wind: 6mph
Humidity: 87%   Direction: 240°WSW
Pressure: 29.74"   Gusts: NA
Location:  55.76°N, 12.32°E
Report Text: EKRK 202050Z AUTO 24005KT 9000NDV BKN090/// 10/08 Q1007
Loading
Personal Weather Stations






























Interactive Weather Map
Tropical Storm Tracking
New forecast layout! Learn more

10-Day Weather Forecast

Advertisements
Track Severe Weather on mobile